Beauport, Canada
Current Conditions -  °F | °C
As of 9:00 AM on Wednesday 28 Jan 2015 (Local Time) from CYQB Reporting Station
Broken Clouds Broken Clouds  
Wind Chill:   Ceiling: 11000
Heat Index: 10°   Visibility: 30mi
Dew Point:   Wind: 5mph
Humidity: 73%   Direction: 240°WSW
Pressure: 30.06"   Gusts: NA
Location:  46.86°N, 71.19°W
Report Text: CYQB 281400Z 24004KT 220V280 30SM BKN110 M12/M16 A3006 RMK AC5 SLP184
Loading
Personal Weather Stations






























Interactive Weather Map New forecast layout! Learn more

10-Day Weather Forecast

Advertisements
Track Severe Weather on mobile